Time;durP1;ratioP1;P1;durP2;ratioP2;P2;SDS_P1;SDS_P2;PMS_P1;PMS_P2;Temp;Humidity;BMP_temperature;BMP_pressure;BME280_temperature;BME280_humidity;BME280_pressure;Samples;Min_cycle;Max_cycle;Signal;HPM_P1;HPM_P2
2022/06/20 00:00:41;;;;;;;1.27;0.98;;;;;;;19.15;67.07;99231.25;5093668;28;20044;-67
2022/06/20 00:03:22;;;;;;;0.77;0.77;;;;;;;19.17;66.75;99233.81;5093931;28;20051;-67
2022/06/20 00:05:53;;;;;;;2.58;1.00;;;;;;;19.19;66.80;99226.81;5093682;28;20040;-67
2022/06/20 00:08:22;;;;;;;0.77;0.77;;;;;;;19.20;66.80;99228.47;5093688;28;20044;-67
2022/06/20 00:10:53;;;;;;;0.53;0.53;;;;;;;19.10;66.79;99222.84;5093623;28;20079;-67
2022/06/20 00:13:37;;;;;;;1.42;0.75;;;;;;;18.92;67.23;99233.13;5093873;28;20364;-67
2022/06/20 00:16:06;;;;;;;0.63;0.63;;;;;;;18.80;67.86;99228.47;5093934;28;20040;-67
2022/06/20 00:18:39;;;;;;;0.50;0.50;;;;;;;18.76;68.08;99230.34;5093616;28;20047;-67
2022/06/20 00:21:13;;;;;;;1.13;0.68;;;;;;;18.70;68.25;99217.66;5093489;28;20040;-67
2022/06/20 00:23:41;;;;;;;0.60;0.60;;;;;;;18.62;68.70;99220.56;5093534;28;20494;-67
2022/06/20 00:26:10;;;;;;;1.65;0.95;;;;;;;18.61;68.78;99224.06;5097608;28;20047;-67
2022/06/20 00:28:42;;;;;;;0.52;0.52;;;;;;;18.61;68.77;99221.47;5097410;28;20064;-67
2022/06/20 00:31:12;;;;;;;0.77;0.70;;;;;;;18.67;68.50;99228.97;5096639;28;20150;-67
2022/06/20 00:33:50;;;;;;;0.73;0.73;;;;;;;18.72;68.32;99219.28;5097510;28;20136;-67
2022/06/20 00:36:20;;;;;;;0.68;0.68;;;;;;;18.77;68.16;99218.25;5097763;28;20040;-67
2022/06/20 00:38:53;;;;;;;0.50;0.50;;;;;;;18.77;68.17;99213.06;5097494;28;20052;-67
2022/06/20 00:41:28;;;;;;;0.52;0.52;;;;;;;18.68;68.32;99209.97;5097263;28;20074;-67
2022/06/20 00:43:57;;;;;;;0.50;0.50;;;;;;;18.55;68.57;99208.78;5097919;28;20048;-67
2022/06/20 00:46:45;;;;;;;0.80;0.80;;;;;;;18.49;69.04;99198.72;5097417;28;20052;-67
2022/06/20 00:49:30;;;;;;;1.60;1.50;;;;;;;18.51;68.88;99191.72;5097319;28;20052;-67
2022/06/20 00:52:19;;;;;;;1.27;1.15;;;;;;;18.49;68.91;99193.53;5097282;28;20044;-67
2022/06/20 00:55:03;;;;;;;0.63;0.63;;;;;;;18.49;68.91;99183.22;5097427;28;20054;-67
2022/06/20 00:57:47;;;;;;;1.00;0.90;;;;;;;18.56;68.80;99182.06;5097253;28;20040;-67
2022/06/20 01:00:31;;;;;;;1.02;0.95;;;;;;;18.67;68.17;99187.59;5097404;28;20048;-67
2022/06/20 01:03:16;;;;;;;0.90;0.90;;;;;;;18.70;68.01;99184.91;5097683;28;20052;-67
2022/06/20 01:05:59;;;;;;;0.80;0.80;;;;;;;18.68;67.99;99178.97;5097021;28;20410;-67
2022/06/20 01:08:51;;;;;;;1.10;1.00;;;;;;;18.70;67.59;99178.88;5097044;28;20093;-67
2022/06/20 01:11:42;;;;;;;0.90;0.90;;;;;;;18.70;67.48;99182.31;5097181;28;20052;-67
2022/06/20 01:14:26;;;;;;;2.58;1.08;;;;;;;18.68;67.42;99168.63;5097403;28;20127;-67
2022/06/20 01:17:18;;;;;;;1.50;0.90;;;;;;;18.69;67.46;99170.28;5096813;28;20131;-67
2022/06/20 01:20:04;;;;;;;0.50;0.50;;;;;;;18.68;67.39;99173.78;5096701;28;20121;-67
2022/06/20 01:23:02;;;;;;;1.15;0.82;;;;;;;18.32;67.17;99118.41;5096778;28;20048;-67
2022/06/20 01:25:58;;;;;;;0.80;0.80;;;;;;;18.61;67.77;99181.84;5096670;28;20137;-67
2022/06/20 01:28:44;;;;;;;0.70;0.70;;;;;;;18.61;67.40;99177.53;5096347;28;20436;-67
2022/06/20 01:31:31;;;;;;;1.83;1.02;;;;;;;18.61;67.24;99171.50;5096626;28;20044;-67
2022/06/20 01:34:14;;;;;;;0.85;0.85;;;;;;;18.57;67.46;99165.63;5096493;28;20044;-67
2022/06/20 01:39:48;;;;;;;0.77;0.77;;;;;;;18.53;67.51;99168.41;5096322;28;20044;-67
2022/06/20 01:42:32;;;;;;;0.75;0.68;;;;;;;18.52;67.58;99162.38;5096355;28;20036;-67
2022/06/20 01:48:16;;;;;;;0.52;0.52;;;;;;;18.50;67.41;99159.03;5095991;28;20134;-67
2022/06/20 01:50:58;;;;;;;0.88;0.85;;;;;;;18.52;67.27;99157.22;5096428;28;20044;-67
2022/06/20 01:53:37;;;;;;;0.98;0.75;;;;;;;18.49;67.36;99157.34;5096157;28;20055;-67
2022/06/20 01:56:19;;;;;;;0.77;0.77;;;;;;;18.46;67.29;99152.31;5095052;28;20144;-67
2022/06/20 01:59:01;;;;;;;0.70;0.70;;;;;;;18.44;67.39;99148.06;5096033;28;20048;-67
2022/06/20 02:01:46;;;;;;;0.60;0.60;;;;;;;18.43;67.39;99152.41;5095942;28;20083;-67
2022/06/20 02:04:32;;;;;;;0.77;0.73;;;;;;;18.22;67.24;99117.09;5096267;28;20059;-67
2022/06/20 02:07:13;;;;;;;0.90;0.88;;;;;;;18.38;67.17;99136.22;5095817;28;20051;-67
2022/06/20 02:09:56;;;;;;;0.70;0.70;;;;;;;18.37;67.47;99136.31;5096111;28;20052;-67
2022/06/20 02:12:38;;;;;;;1.98;0.75;;;;;;;18.32;67.19;99126.16;5095819;28;20048;-67
2022/06/20 02:15:19;;;;;;;0.60;0.60;;;;;;;18.32;67.36;99123.59;5096302;28;20044;-67
2022/06/20 02:18:04;;;;;;;0.68;0.68;;;;;;;18.28;67.41;99126.34;5095678;28;20093;-67
2022/06/20 02:20:50;;;;;;;0.80;0.70;;;;;;;18.11;67.50;99108.97;5095611;28;20055;-67
2022/06/20 02:23:42;;;;;;;0.75;0.73;;;;;;;18.24;67.78;99124.78;5095508;28;20570;-67
2022/06/20 02:26:36;;;;;;;3.70;1.38;;;;;;;18.23;67.78;99118.78;5095521;28;20129;-67
2022/06/20 02:29:32;;;;;;;0.70;0.70;;;;;;;18.24;67.70;99117.88;5095416;28;20051;-66
2022/06/20 02:32:16;;;;;;;1.07;0.97;;;;;;;18.18;67.92;99123.31;5095411;28;20074;-67
2022/06/20 02:34:57;;;;;;;1.00;0.88;;;;;;;18.20;67.96;99124.06;5095661;28;20075;-67
2022/06/20 02:37:41;;;;;;;0.47;0.47;;;;;;;18.21;67.88;99137.84;5095289;28;20051;-67
2022/06/20 02:40:25;;;;;;;0.55;0.55;;;;;;;18.20;67.81;99131.81;5095126;28;20044;-67
2022/06/20 02:43:12;;;;;;;0.70;0.70;;;;;;;18.18;67.89;99128.47;5095509;28;20048;-66
2022/06/20 02:45:55;;;;;;;0.80;0.80;;;;;;;18.11;67.88;99129.63;5095313;28;20044;-66
2022/06/20 02:48:36;;;;;;;0.70;0.70;;;;;;;18.08;68.00;99107.34;5094435;28;20063;-67
2022/06/20 02:51:27;;;;;;;1.05;0.80;;;;;;;18.07;68.11;99118.56;5095348;28;20048;-67
2022/06/20 02:54:11;;;;;;;0.70;0.70;;;;;;;18.07;68.32;99117.72;5095253;28;20052;-66
2022/06/20 02:57:00;;;;;;;1.38;0.82;;;;;;;18.01;68.11;99102.47;5095483;28;20044;-67
2022/06/20 02:59:44;;;;;;;0.80;0.80;;;;;;;18.09;67.92;99118.50;5094820;28;20105;-66
2022/06/20 03:02:38;;;;;;;1.15;1.05;;;;;;;18.07;68.20;99118.56;5094751;28;20367;-66
2022/06/20 03:05:18;;;;;;;0.75;0.75;;;;;;;18.09;68.12;99114.16;5095057;28;20112;-67
2022/06/20 03:07:59;;;;;;;0.57;0.57;;;;;;;18.06;68.19;99119.47;5094771;28;20109;-67
2022/06/20 03:10:41;;;;;;;1.55;1.23;;;;;;;18.10;68.44;99127.94;5094614;28;20051;-67
2022/06/20 03:13:24;;;;;;;0.75;0.70;;;;;;;18.16;68.28;99135.44;5094833;28;20044;-66
2022/06/20 03:16:06;;;;;;;0.70;0.70;;;;;;;18.21;68.22;99120.56;5094841;28;20044;-67
2022/06/20 03:18:50;;;;;;;1.42;1.15;;;;;;;18.23;68.00;99123.13;5094543;28;20048;-67
2022/06/20 03:21:38;;;;;;;0.85;0.73;;;;;;;18.23;67.91;99123.97;5094208;28;20102;-66
2022/06/20 03:24:24;;;;;;;1.02;0.93;;;;;;;18.24;67.98;99119.59;5094403;28;20456;-67
2022/06/20 03:27:07;;;;;;;0.80;0.80;;;;;;;18.23;68.31;99107.63;5094043;28;20044;-67
2022/06/20 03:29:56;;;;;;;0.60;0.60;;;;;;;18.24;68.41;99110.13;5094540;28;20055;-67
2022/06/20 03:32:39;;;;;;;0.70;0.70;;;;;;;18.21;68.86;99110.25;5094287;28;20528;-67
2022/06/20 03:35:18;;;;;;;0.93;0.82;;;;;;;18.24;68.58;99107.53;5094270;28;20073;-67
2022/06/20 03:37:58;;;;;;;1.57;1.17;;;;;;;18.27;68.62;99091.91;5094542;28;20509;-66
2022/06/20 03:40:39;;;;;;;1.02;0.80;;;;;;;18.33;68.31;99094.22;5094053;28;20287;-67
2022/06/20 03:43:28;;;;;;;0.80;0.80;;;;;;;18.37;68.32;99090.66;5094129;28;20051;-67
2022/06/20 03:46:15;;;;;;;0.65;0.65;;;;;;;18.34;68.69;99093.34;5094313;28;20440;-67
2022/06/20 03:49:02;;;;;;;0.70;0.70;;;;;;;18.23;68.72;99067.13;5094003;28;20075;-67
2022/06/20 03:51:50;;;;;;;0.60;0.60;;;;;;;18.32;69.03;99092.56;5094007;28;20105;-67
2022/06/20 03:54:37;;;;;;;0.65;0.65;;;;;;;18.35;69.14;99096.78;5093978;28;20047;-67
2022/06/20 03:57:22;;;;;;;0.90;0.70;;;;;;;18.44;68.92;99102.41;5093918;28;20056;-67
2022/06/20 04:00:08;;;;;;;1.35;0.77;;;;;;;18.54;68.68;99108.06;5092955;28;20111;-67
2022/06/20 04:03:00;;;;;;;0.70;0.70;;;;;;;18.65;68.52;99109.28;5093763;28;20036;-67
2022/06/20 04:05:53;;;;;;;0.70;0.70;;;;;;;18.77;68.10;99117.41;5094684;28;20131;-67
2022/06/20 04:11:37;;;;;;;1.98;0.70;;;;;;;18.94;67.75;99120.09;5093664;28;20590;-66
2022/06/20 04:14:26;;;;;;;0.75;0.65;;;;;;;19.02;67.63;99105.09;5093727;28;20045;-67
2022/06/20 04:20:22;;;;;;;0.63;0.63;;;;;;;19.21;67.41;99105.97;5094287;28;20044;-67
2022/06/20 04:23:16;;;;;;;0.80;0.77;;;;;;;19.34;67.39;99105.34;5093534;28;20547;-67
2022/06/20 04:26:01;;;;;;;0.73;0.73;;;;;;;19.47;67.12;99112.56;5093909;28;20051;-67
2022/06/20 04:28:48;;;;;;;1.05;0.98;;;;;;;19.57;66.88;99113.84;5093399;28;20047;-67
2022/06/20 04:31:38;;;;;;;0.52;0.52;;;;;;;19.71;66.56;99114.88;5093540;28;20533;-67
2022/06/20 04:34:23;;;;;;;0.60;0.60;;;;;;;19.86;65.90;99106.38;5093776;28;20093;-67
2022/06/20 04:37:14;;;;;;;1.27;1.15;;;;;;;20.01;65.27;99113.41;5093485;28;20082;-67
2022/06/20 04:40:03;;;;;;;0.50;0.50;;;;;;;20.14;64.96;99105.03;5093400;28;20047;-67
2022/06/20 04:42:49;;;;;;;1.00;0.90;;;;;;;20.29;64.75;99099.16;5093354;28;20509;-67
2022/06/20 04:45:38;;;;;;;1.08;0.90;;;;;;;20.45;64.44;99094.88;5094040;28;20044;-67
2022/06/20 04:48:24;;;;;;;1.00;1.00;;;;;;;20.61;64.18;99098.41;5093183;28;20448;-67
2022/06/20 04:51:18;;;;;;;1.33;0.98;;;;;;;20.76;63.46;99100.19;5093304;28;20048;-67
2022/06/20 04:53:58;;;;;;;1.17;1.00;;;;;;;20.87;63.13;99097.91;5093273;28;20554;-67
2022/06/20 04:56:40;;;;;;;0.73;0.73;;;;;;;21.07;63.18;99102.06;5093302;28;20130;-66
2022/06/20 04:59:22;;;;;;;8.88;0.75;;;;;;;21.25;63.41;99085.53;5093338;28;20102;-67
2022/06/20 05:02:10;;;;;;;0.98;0.90;;;;;;;21.45;63.24;99089.66;5093184;28;20040;-67
2022/06/20 05:04:54;;;;;;;1.15;1.02;;;;;;;21.58;62.63;99088.88;5093125;28;20048;-67
2022/06/20 05:07:43;;;;;;;0.70;0.70;;;;;;;21.69;62.45;99099.50;5093581;28;20056;-67
2022/06/20 05:10:34;;;;;;;1.83;1.38;;;;;;;21.85;62.38;99096.94;5094133;28;20070;-67
2022/06/20 05:13:19;;;;;;;1.35;0.98;;;;;;;21.74;62.19;99055.94;5097120;28;20052;-67
2022/06/20 05:15:59;;;;;;;1.10;1.00;;;;;;;22.09;62.19;99094.72;5096847;28;20573;-67
2022/06/20 05:18:43;;;;;;;0.93;0.82;;;;;;;22.09;62.13;99066.97;5097119;28;20486;-66
2022/06/20 05:21:30;;;;;;;1.20;0.88;;;;;;;22.36;61.57;99075.75;5096474;28;20048;-67
2022/06/20 05:24:14;;;;;;;0.80;0.80;;;;;;;22.34;60.27;99080.22;5096504;28;20040;-67
2022/06/20 05:26:55;;;;;;;0.70;0.70;;;;;;;22.45;59.81;99087.41;5096420;28;20044;-69
2022/06/20 05:29:38;;;;;;;0.70;0.70;;;;;;;22.58;59.69;99090.94;5096969;28;20098;-67
2022/06/20 05:32:23;;;;;;;2.42;1.85;;;;;;;22.68;59.00;99087.75;5096815;28;20044;-67
2022/06/20 05:35:08;;;;;;;0.50;0.50;;;;;;;22.77;59.13;99083.75;5110795;28;20048;-67
2022/06/20 05:37:44;;;;;;;0.70;0.70;;;;;;;22.91;59.08;99089.00;5096320;28;20055;-67
2022/06/20 05:40:17;;;;;;;0.47;0.47;;;;;;;23.03;59.42;99097.81;5096554;28;20505;-67
2022/06/20 05:42:55;;;;;;;0.95;0.82;;;;;;;23.19;59.33;99098.56;5111968;28;20048;-67
2022/06/20 05:45:30;;;;;;;1.10;1.00;;;;;;;23.28;58.55;99100.59;5096140;28;20048;-67
2022/06/20 05:48:04;;;;;;;0.65;0.65;;;;;;;23.37;57.82;99092.22;5096206;28;20036;-67
2022/06/20 05:50:42;;;;;;;0.70;0.70;;;;;;;23.47;57.33;99085.50;5096433;28;20146;-67
2022/06/20 05:53:24;;;;;;;0.80;0.80;;;;;;;23.56;57.40;99087.56;5096192;28;20037;-67
2022/06/20 05:55:57;;;;;;;0.90;0.70;;;;;;;23.64;57.48;99080.09;5096198;28;20537;-68
2022/06/20 05:58:32;;;;;;;0.77;0.73;;;;;;;23.70;56.92;99084.91;5096321;28;20048;-67
2022/06/20 06:01:06;;;;;;;0.60;0.60;;;;;;;23.83;57.09;99088.41;5095952;28;20131;-67
2022/06/20 06:03:40;;;;;;;0.57;0.57;;;;;;;24.00;56.68;99102.97;5095806;28;20044;-67
2022/06/20 06:06:17;;;;;;;0.70;0.70;;;;;;;24.13;56.47;99106.50;5093032;28;20068;-67
2022/06/20 06:08:52;;;;;;;1.30;0.80;;;;;;;24.25;55.96;99102.22;5095306;28;20036;-67
2022/06/20 06:11:27;;;;;;;0.80;0.80;;;;;;;24.28;55.72;99086.38;5095527;28;20093;-67
2022/06/20 06:14:03;;;;;;;2.15;0.85;;;;;;;24.38;55.03;99093.47;5095344;28;20050;-67
2022/06/20 06:19:33;;;;;;;1.00;0.90;;;;;;;24.59;54.15;99092.03;5095437;28;20089;-67
2022/06/20 06:22:06;;;;;;;1.00;0.90;;;;;;;24.72;53.99;99092.06;5076299;28;20052;-68
2022/06/20 06:24:43;;;;;;;1.10;0.93;;;;;;;24.79;53.65;99089.91;5095418;28;20040;-69
2022/06/20 06:27:22;;;;;;;0.68;0.68;;;;;;;24.87;53.31;99098.06;5095218;28;20056;-68
2022/06/20 06:29:57;;;;;;;1.15;0.90;;;;;;;25.07;53.25;99087.94;5095132;28;20440;-68
2022/06/20 06:32:34;;;;;;;6.85;2.00;;;;;;;25.23;53.74;99091.13;5094787;28;20482;-68
2022/06/20 06:35:14;;;;;;;2.08;1.20;;;;;;;25.36;53.42;99082.44;5095259;28;20044;-68
2022/06/20 06:37:49;;;;;;;0.70;0.70;;;;;;;25.33;52.32;99074.81;5095223;28;20596;-68
2022/06/20 06:40:30;;;;;;;1.50;1.15;;;;;;;25.38;52.30;99075.31;5094780;28;20132;-68
2022/06/20 06:43:00;;;;;;;0.90;0.90;;;;;;;25.47;52.03;99070.31;5094936;28;20040;-67
2022/06/20 06:45:31;;;;;;;;;;;;;;;25.67;52.59;99055.81;5095108;28;20044;-67
2022/06/20 06:48:06;;;;;;;0.98;0.77;;;;;;;25.64;52.47;99040.34;5094843;28;20395;-67
2022/06/20 06:50:39;;;;;;;0.88;0.80;;;;;;;25.74;52.09;99057.03;5094930;28;20127;-67
2022/06/20 06:53:17;;;;;;;0.55;0.55;;;;;;;25.79;51.71;99054.91;5095071;28;20494;-68
2022/06/20 06:55:51;;;;;;;1.10;1.00;;;;;;;25.77;51.06;99046.34;5095113;28;20048;-67
2022/06/20 06:58:26;;;;;;;2.85;1.15;;;;;;;25.81;51.18;99027.72;5094930;28;20082;-67
2022/06/20 07:00:59;;;;;;;0.80;0.73;;;;;;;26.10;50.91;99058.72;5094771;28;20503;-68
2022/06/20 07:03:34;;;;;;;0.50;0.50;;;;;;;26.18;50.27;99056.41;5094242;28;20051;-68
2022/06/20 07:06:13;;;;;;;1.17;1.08;;;;;;;26.20;49.70;99047.47;5094168;28;20062;-68
2022/06/20 07:09:08;;;;;;;;;;;;;;;26.37;50.48;99033.97;5094531;28;20093;-68
2022/06/20 07:11:49;;;;;;;1.63;1.00;;;;;;;26.40;50.34;99025.88;5093192;28;19920;-68
2022/06/20 07:14:21;;;;;;;0.90;0.88;;;;;;;26.54;50.35;99028.28;5093542;28;20036;-68
2022/06/20 07:17:08;;;;;;;0.70;0.70;;;;;;;26.75;50.30;99036.34;5094732;28;20486;-68
2022/06/20 07:19:40;;;;;;;0.70;0.70;;;;;;;26.85;49.92;99028.59;5094726;28;20048;-68
2022/06/20 07:22:14;;;;;;;2.38;0.80;;;;;;;26.93;49.29;99031.44;5093233;28;20455;-68
2022/06/20 07:24:45;;;;;;;1.27;1.17;;;;;;;27.02;49.61;99014.97;5094276;28;20114;-68
2022/06/20 07:27:23;;;;;;;0.80;0.77;;;;;;;27.16;49.58;99028.66;5093936;28;20056;-68
2022/06/20 07:29:59;;;;;;;0.75;0.75;;;;;;;27.33;49.45;99022.09;5093062;28;20036;-68
2022/06/20 07:32:36;;;;;;;6.55;1.02;;;;;;;27.43;48.56;99017.81;5087626;28;20039;-68
2022/06/20 07:35:11;;;;;;;0.60;0.60;;;;;;;27.43;47.33;99016.97;5093965;28;20105;-68
2022/06/20 07:37:48;;;;;;;0.70;0.70;;;;;;;27.33;46.57;99014.22;5094211;28;20044;-68
2022/06/20 07:40:23;;;;;;;5.30;0.85;;;;;;;27.47;46.91;99014.00;5093910;28;20445;-68
2022/06/20 07:43:00;;;;;;;0.60;0.60;;;;;;;27.65;46.12;99006.41;5093800;28;20497;-68
2022/06/20 07:45:35;;;;;;;0.60;0.60;;;;;;;27.77;45.51;99006.25;5094055;28;20542;-68
2022/06/20 07:48:11;;;;;;;1.23;1.13;;;;;;;27.93;45.08;98985.66;5089840;28;20040;-68
2022/06/20 07:50:51;;;;;;;0.55;0.55;;;;;;;27.97;44.93;98970.50;5073676;28;20439;-67
2022/06/20 07:53:25;;;;;;;0.80;0.80;;;;;;;27.96;45.02;98986.38;5073617;28;20110;-67
2022/06/20 07:55:59;;;;;;;0.52;0.52;;;;;;;27.88;44.95;98981.78;5073649;28;20075;-68
2022/06/20 07:58:32;;;;;;;0.70;0.70;;;;;;;27.98;45.05;98981.84;5073754;28;20131;-67
2022/06/20 08:01:07;;;;;;;0.70;0.65;;;;;;;28.04;44.88;98970.84;5077181;28;20055;-64
2022/06/20 08:03:41;;;;;;;0.60;0.60;;;;;;;28.04;44.84;98965.59;5087659;28;20138;-69
2022/06/20 08:06:26;;;;;;;0.52;0.52;;;;;;;28.01;45.09;98961.44;5092798;28;20281;-68
2022/06/20 08:08:59;;;;;;;0.90;0.80;;;;;;;28.18;45.10;98962.66;5094277;28;20398;-67
2022/06/20 08:11:42;;;;;;;0.70;0.70;;;;;;;28.30;44.45;98951.13;5092793;28;20040;-68
2022/06/20 08:14:21;;;;;;;1.40;0.95;;;;;;;28.43;44.18;98951.75;5091924;28;20040;-68
2022/06/20 08:16:54;;;;;;;0.70;0.60;;;;;;;28.53;43.78;98957.84;5088366;28;20123;-68
2022/06/20 08:19:24;;;;;;;1.17;1.08;;;;;;;28.75;44.37;98962.13;5073290;28;20040;-67
2022/06/20 08:21:59;;;;;;;0.75;0.68;;;;;;;28.63;43.79;98964.03;5073522;28;20379;-67
2022/06/20 08:24:33;;;;;;;0.60;0.60;;;;;;;28.58;43.84;98955.66;5073560;28;20554;-67
2022/06/20 08:27:07;;;;;;;2.70;1.45;;;;;;;28.68;43.74;98956.56;5073582;28;20037;-67
2022/06/20 08:29:40;;;;;;;0.70;0.70;;;;;;;28.82;44.75;98952.78;5073013;28;20048;-67
2022/06/20 08:32:20;;;;;;;0.68;0.68;;;;;;;29.00;44.91;98952.00;5088535;28;20050;-67
2022/06/20 08:34:55;;;;;;;0.60;0.60;;;;;;;29.07;43.67;98958.38;5092393;28;20123;-68
2022/06/20 08:37:29;;;;;;;0.85;0.82;;;;;;;29.22;43.75;98956.22;5092909;28;20055;-67
2022/06/20 08:40:06;;;;;;;0.85;0.82;;;;;;;29.38;43.70;98955.66;5093592;28;20465;-67
2022/06/20 08:42:49;;;;;;;0.82;0.82;;;;;;;29.41;43.50;98952.75;5093261;28;20082;-67
2022/06/20 08:45:54;;;;;;;0.75;0.73;;;;;;;29.40;42.54;98943.19;5094440;28;20040;-66
2022/06/20 08:48:54;;;;;;;0.60;0.60;;;;;;;29.49;42.92;98934.50;5096434;28;20046;-67
2022/06/20 08:52:06;;;;;;;0.90;0.88;;;;;;;29.74;42.88;98937.41;5097154;28;20043;-67
2022/06/20 08:55:01;;;;;;;0.65;0.65;;;;;;;30.27;42.24;98939.53;5097406;28;20097;-67
2022/06/20 08:57:41;;;;;;;0.80;0.80;;;;;;;30.49;40.53;98912.88;5097120;28;20550;-67
2022/06/20 09:00:38;;;;;;;2.55;1.38;;;;;;;30.69;39.96;98914.44;5096738;28;20584;-67
2022/06/20 09:03:33;;;;;;;1.63;0.98;;;;;;;30.59;39.65;98918.09;5093989;28;20119;-66
2022/06/20 09:06:18;;;;;;;1.15;0.85;;;;;;;30.63;39.95;98915.03;5080047;28;20040;-67
2022/06/20 09:09:21;;;;;;;1.90;1.33;;;;;;;30.87;39.51;98903.94;5094806;28;20113;-67
2022/06/20 09:12:09;;;;;;;0.70;0.70;;;;;;;31.14;38.86;98914.47;5092705;28;20470;-66
2022/06/20 09:15:10;;;;;;;0.90;0.85;;;;;;;31.04;38.08;98904.00;5096499;28;20044;-66
2022/06/20 09:17:53;;;;;;;0.95;0.93;;;;;;;31.11;38.31;98893.69;5083392;28;20048;-66
2022/06/20 09:20:34;;;;;;;0.70;0.70;;;;;;;31.06;39.16;98895.94;5096686;28;20225;-65
2022/06/20 09:23:14;;;;;;;1.02;0.95;;;;;;;30.93;38.74;98888.38;5096903;28;20044;-64
2022/06/20 09:25:55;;;;;;;0.70;0.70;;;;;;;30.92;38.20;98891.16;5095989;28;20066;-65
2022/06/20 09:28:53;;;;;;;1.13;1.02;;;;;;;30.83;38.80;98884.13;5096379;28;20051;-64
2022/06/20 09:31:47;;;;;;;0.63;0.63;;;;;;;30.74;39.13;98874.47;5081949;28;20075;-67
2022/06/20 09:34:34;;;;;;;1.30;1.20;;;;;;;30.58;39.44;98874.28;5085536;28;20055;-67
2022/06/20 09:37:25;;;;;;;0.57;0.57;;;;;;;30.67;40.07;98883.94;5076435;28;20079;-68
2022/06/20 09:40:10;;;;;;;0.93;0.82;;;;;;;30.63;39.56;98877.31;5075995;28;20131;-65
2022/06/20 09:42:48;;;;;;;1.10;0.80;;;;;;;30.72;39.55;98871.13;5075997;28;20045;-68
2022/06/20 09:45:24;;;;;;;1.92;0.95;;;;;;;30.75;40.18;98870.84;5075988;28;20072;-66
2022/06/20 09:48:12;;;;;;;1.27;1.17;;;;;;;30.76;40.13;98869.88;5075964;28;20056;-68
2022/06/20 09:50:52;;;;;;;0.63;0.63;;;;;;;30.67;40.60;98868.13;5076076;28;20039;-66
2022/06/20 09:53:36;;;;;;;1.13;1.02;;;;;;;30.77;40.16;98872.38;5075774;28;20062;-67
2022/06/20 09:56:12;;;;;;;1.15;1.02;;;;;;;30.83;40.74;98873.59;5075781;28;20495;-65
2022/06/20 09:58:55;;;;;;;1.05;0.85;;;;;;;30.93;40.50;98877.03;5075756;28;20074;-66
2022/06/20 10:01:32;;;;;;;0.52;0.52;;;;;;;30.93;40.17;98863.84;5094305;28;20135;-68
2022/06/20 10:04:17;;;;;;;1.10;1.00;;;;;;;30.91;40.60;98855.22;5094175;28;20043;-66
2022/06/20 10:06:56;;;;;;;2.55;1.42;;;;;;;30.86;39.63;98847.75;5095752;28;20072;-67
2022/06/20 10:09:36;;;;;;;0.60;0.60;;;;;;;30.67;39.99;98847.03;5095822;28;20044;-66
2022/06/20 10:12:10;;;;;;;0.80;0.80;;;;;;;30.72;39.92;98842.16;5095660;28;20502;-66
2022/06/20 10:14:49;;;;;;;1.25;0.80;;;;;;;30.85;39.90;98851.38;5094545;28;20058;-68
2022/06/20 10:17:26;;;;;;;0.80;0.80;;;;;;;30.95;39.64;98840.78;5095377;28;20119;-66
2022/06/20 10:20:09;;;;;;;1.15;0.95;;;;;;;31.02;39.82;98847.97;5094987;28;20048;-67
2022/06/20 10:22:45;;;;;;;1.00;0.90;;;;;;;31.14;40.06;98851.19;5095557;28;20195;-66
2022/06/20 10:25:39;;;;;;;0.82;0.75;;;;;;;31.19;39.83;98859.47;5095615;28;20067;-67
2022/06/20 10:28:17;;;;;;;0.60;0.60;;;;;;;31.20;39.55;98861.13;5094274;28;20055;-65
2022/06/20 10:30:50;;;;;;;1.13;1.03;;;;;;;31.17;39.41;98861.41;5074608;28;20401;-65
2022/06/20 10:33:30;;;;;;;0.60;0.60;;;;;;;31.17;39.86;98858.78;5074705;28;20044;-67
2022/06/20 10:36:29;;;;;;;0.70;0.70;;;;;;;31.24;39.65;98857.22;5075169;28;20479;-66
2022/06/20 10:39:07;;;;;;;;;;;;;;;31.34;39.32;98863.22;5080162;28;20040;-67
2022/06/20 10:41:46;;;;;;;0.70;0.70;;;;;;;31.40;39.61;98856.50;5095034;28;19924;-66
2022/06/20 10:44:23;;;;;;;3.40;2.05;;;;;;;31.45;39.73;98868.31;5095078;28;20050;-66
2022/06/20 10:47:00;;;;;;;1.20;0.98;;;;;;;31.13;39.20;98821.34;5094170;28;20053;-67
2022/06/20 10:49:44;;;;;;;0.65;0.65;;;;;;;31.45;40.14;98863.03;5094832;28;20498;-65
2022/06/20 10:52:32;;;;;;;0.68;0.68;;;;;;;31.42;40.00;98865.09;5095244;28;20541;-66
2022/06/20 10:55:13;;;;;;;0.60;0.60;;;;;;;31.55;39.97;98871.69;5094799;28;20071;-66
2022/06/20 10:57:54;;;;;;;0.95;0.95;;;;;;;31.71;39.44;98879.72;5094821;28;20055;-67
2022/06/20 11:00:26;;;;;;;1.88;0.80;;;;;;;31.78;39.61;98878.13;5094792;28;20089;-65
2022/06/20 11:03:17;;;;;;;0.90;0.82;;;;;;;31.94;39.75;98887.13;5091916;28;20086;-64
2022/06/20 11:05:53;;;;;;;1.67;1.10;;;;;;;31.96;38.73;98874.59;5094583;28;20072;-65
2022/06/20 11:08:38;;;;;;;0.60;0.60;;;;;;;32.00;38.50;98870.69;5094162;28;20054;-65
2022/06/20 11:11:20;;;;;;;0.60;0.60;;;;;;;32.03;38.39;98870.38;5094467;28;20101;-66
2022/06/20 11:13:58;;;;;;;1.02;0.93;;;;;;;32.16;38.44;98865.50;5094595;28;20040;-64
2022/06/20 11:16:36;;;;;;;1.00;0.85;;;;;;;32.18;37.80;98853.78;5094641;28;20044;-63
2022/06/20 11:19:19;;;;;;;3.58;1.67;;;;;;;32.16;37.22;98858.41;5093042;28;20064;-66
2022/06/20 11:22:03;;;;;;;1.20;0.90;;;;;;;32.28;38.43;98859.78;5093340;28;20473;-67
2022/06/20 11:24:45;;;;;;;1.05;0.90;;;;;;;32.35;38.17;98866.09;5087234;28;20046;-65
2022/06/20 11:27:30;;;;;;;1.30;1.00;;;;;;;32.44;37.59;98870.41;5094081;28;20055;-65
2022/06/20 11:30:14;;;;;;;1.17;1.08;;;;;;;32.46;37.83;98867.63;5094233;28;20040;-65
2022/06/20 11:33:03;;;;;;;0.55;0.55;;;;;;;32.36;38.23;98851.91;5091057;28;20744;-64
2022/06/20 11:35:43;;;;;;;0.80;0.80;;;;;;;32.52;37.69;98850.31;5081002;28;20058;-66
2022/06/20 11:38:34;;;;;;;0.75;0.75;;;;;;;32.49;37.10;98843.50;5081599;28;20044;-65
2022/06/20 11:41:09;;;;;;;0.77;0.73;;;;;;;32.47;37.28;98842.84;5073755;28;20033;-66
2022/06/20 11:44:12;;;;;;;3.13;1.58;;;;;;;32.45;37.03;98853.56;5083505;28;20082;-66
2022/06/20 11:47:08;;;;;;;1.10;1.00;;;;;;;32.51;36.89;98849.50;5060301;28;20390;-65
2022/06/20 11:50:05;;;;;;;2.17;1.30;;;;;;;32.52;36.58;98835.28;5079552;28;20078;-67
2022/06/20 11:52:45;;;;;;;0.88;0.85;;;;;;;32.77;36.97;98831.75;5094195;28;20032;-65
2022/06/20 11:55:22;;;;;;;0.80;0.80;;;;;;;32.65;37.01;98835.69;5093109;28;20048;-66
2022/06/20 11:57:58;;;;;;;0.70;0.70;;;;;;;32.66;36.66;98836.50;5073524;28;20094;-65
2022/06/20 12:00:33;;;;;;;1.45;1.25;;;;;;;32.67;37.27;98838.97;5081443;28;20056;-65
2022/06/20 12:03:14;;;;;;;0.60;0.60;;;;;;;32.69;36.64;98844.09;5072404;28;20388;-66
2022/06/20 12:05:48;;;;;;;0.75;0.75;;;;;;;32.64;36.61;98827.88;5081701;28;20068;-64
2022/06/20 12:08:28;;;;;;;1.75;1.45;;;;;;;32.82;36.48;98845.31;5079200;28;20052;-65
2022/06/20 12:10:59;;;;;;;0.68;0.68;;;;;;;32.82;36.84;98831.25;5073770;28;20053;-66
2022/06/20 12:13:40;;;;;;;1.08;0.85;;;;;;;32.91;36.52;98841.69;5074741;28;20050;-65
2022/06/20 12:16:22;;;;;;;0.65;0.63;;;;;;;32.98;36.22;98840.03;5081281;28;20123;-65
2022/06/20 12:24:27;;;;;;;;;;;;;;;32.96;36.33;98847.31;5098431;28;20567;-67
2022/06/20 12:26:56;;;;;;;7.95;1.67;;;;;;;32.96;36.53;98855.25;5097733;28;20308;-67
2022/06/20 12:29:29;;;;;;;0.93;0.85;;;;;;;33.05;36.98;98842.88;5097197;28;20055;-67
2022/06/20 12:32:01;;;;;;;1.08;0.93;;;;;;;33.19;36.20;98855.44;5097584;28;20133;-66
2022/06/20 12:34:45;;;;;;;0.80;0.80;;;;;;;33.08;35.46;98843.38;5097545;28;20048;-66
2022/06/20 12:37:22;;;;;;;0.80;0.80;;;;;;;33.02;35.77;98844.03;5097658;28;20407;-67
2022/06/20 12:39:58;;;;;;;0.63;0.63;;;;;;;32.99;36.18;98860.19;5097592;28;20060;-66
2022/06/20 12:42:35;;;;;;;0.75;0.75;;;;;;;32.64;36.60;98820.78;5097368;28;20105;-65
2022/06/20 12:45:24;;;;;;;0.85;0.80;;;;;;;32.87;35.97;98872.09;5097406;28;20041;-66
2022/06/20 12:48:10;;;;;;;0.60;0.60;;;;;;;32.77;36.54;98875.84;5097346;28;20070;-65
2022/06/20 12:50:49;;;;;;;0.73;0.70;;;;;;;32.65;37.27;98874.50;5097136;28;20501;-66
2022/06/20 12:53:33;;;;;;;1.65;1.35;;;;;;;32.53;37.93;98884.53;5097516;28;20048;-67
2022/06/20 12:56:14;;;;;;;1.25;0.70;;;;;;;32.50;38.37;98874.28;5095449;28;20063;-67
2022/06/20 12:59:03;;;;;;;0.80;0.80;;;;;;;32.27;39.07;98855.47;5097698;28;20443;-67
2022/06/20 13:01:37;;;;;;;;;;;;;;;32.37;38.92;98873.88;5096062;28;20040;-67